Time;durP1;ratioP1;P1;durP2;ratioP2;P2;SDS_P1;SDS_P2;PMS_P1;PMS_P2;Temp;Humidity;BMP_temperature;BMP_pressure;BME280_temperature;BME280_humidity;BME280_pressure;Samples;Min_cycle;Max_cycle;Signal;HPM_P1;HPM_P2
2023/11/09 00:00:49;;;;;;;18.67;17.53;;;8.70;93.80;;;;;;5041808;28;20192;-93
2023/11/09 00:03:15;;;;;;;19.03;17.93;;;8.70;93.80;;;;;;5043928;28;20172;-92
2023/11/09 00:05:43;;;;;;;20.63;18.90;;;8.70;93.80;;;;;;5043922;28;20191;-92
2023/11/09 00:08:08;;;;;;;18.63;17.43;;;8.70;93.90;;;;;;5044669;28;20259;-92
2023/11/09 00:10:34;;;;;;;19.67;18.20;;;8.70;93.90;;;;;;5044406;28;20211;-93
2023/11/09 00:13:00;;;;;;;35.83;33.73;;;8.70;94.00;;;;;;5043839;28;20199;-93
2023/11/09 00:15:26;;;;;;;35.13;33.03;;;8.70;94.00;;;;;;5041476;28;20731;-92
2023/11/09 00:17:52;;;;;;;36.27;33.77;;;8.80;94.10;;;;;;5043199;28;20195;-93
2023/11/09 00:20:21;;;;;;;35.80;33.70;;;8.80;94.10;;;;;;5042730;28;20227;-92
2023/11/09 00:22:48;;;;;;;35.27;33.07;;;8.80;94.20;;;;;;5042801;28;20187;-93
2023/11/09 00:25:16;;;;;;;35.50;33.30;;;8.80;94.30;;;;;;5042904;28;20275;-93
2023/11/09 00:27:42;;;;;;;36.93;34.47;;;8.80;94.30;;;;;;5041444;28;20176;-92
2023/11/09 00:30:08;;;;;;;35.20;33.00;;;8.80;94.30;;;;;;5042463;28;20176;-93
2023/11/09 00:32:34;;;;;;;36.70;34.30;;;8.80;94.40;;;;;;5043473;28;20176;-93
2023/11/09 00:35:00;;;;;;;36.20;34.00;;;8.80;94.40;;;;;;5045506;28;20179;-92
2023/11/09 00:37:28;;;;;;;37.87;35.43;;;8.80;94.40;;;;;;5047127;28;20184;-92
2023/11/09 00:39:55;;;;;;;36.93;34.53;;;8.80;94.40;;;;;;5047337;28;20210;-92
2023/11/09 00:42:24;;;;;;;36.90;34.80;;;8.80;94.50;;;;;;5046842;28;20196;-90
2023/11/09 00:44:53;;;;;;;37.53;35.33;;;8.80;94.60;;;;;;5046696;28;20176;-93
2023/11/09 00:47:18;;;;;;;43.70;40.80;;;8.80;94.60;;;;;;5046582;28;20202;-92
2023/11/09 00:49:44;;;;;;;22.20;20.47;;;8.80;94.60;;;;;;5045888;28;20180;-93
2023/11/09 00:52:13;;;;;;;21.67;20.37;;;8.80;94.70;;;;;;5047429;28;20241;-93
2023/11/09 00:54:38;;;;;;;39.77;37.07;;;8.80;94.70;;;;;;5046000;28;20180;-94
2023/11/09 00:57:04;;;;;;;39.23;36.53;;;8.80;94.80;;;;;;5045970;28;20210;-92
2023/11/09 00:59:30;;;;;;;36.73;34.57;;;8.80;94.80;;;;;;5046477;28;20210;-94
2023/11/09 01:01:56;;;;;;;21.90;20.40;;;8.80;94.80;;;;;;5030668;28;20188;-92
2023/11/09 01:04:24;;;;;;;21.53;20.03;;;8.80;94.80;;;;;;5045774;28;20547;-92
2023/11/09 01:06:50;;;;;;;38.13;35.83;;;8.80;94.80;;;;;;5046213;28;20223;-92
2023/11/09 01:09:17;;;;;;;38.93;36.63;;;8.80;94.80;;;;;;5047162;28;20183;-92
2023/11/09 01:11:43;;;;;;;24.27;22.67;;;8.80;94.80;;;;;;5044965;28;20183;-92
2023/11/09 01:14:09;;;;;;;23.07;21.53;;;8.80;94.80;;;;;;5046129;28;20176;-92
2023/11/09 01:16:35;;;;;;;22.23;20.67;;;8.80;94.70;;;;;;5046262;28;20238;-92
2023/11/09 01:19:06;;;;;;;24.27;22.67;;;8.80;94.70;;;;;;5045010;28;20180;-92
2023/11/09 01:21:34;;;;;;;24.57;23.07;;;8.80;94.60;;;;;;5045785;28;20168;-93
2023/11/09 01:24:05;;;;;;;23.53;22.03;;;8.80;94.60;;;;;;5063926;28;20164;-93
2023/11/09 01:26:30;;;;;;;23.30;21.90;;;8.80;94.60;;;;;;5044625;28;20196;-92
2023/11/09 01:28:57;;;;;;;21.43;20.13;;;8.90;94.60;;;;;;5045627;28;20184;-93
2023/11/09 01:31:22;;;;;;;22.40;21.00;;;8.80;94.50;;;;;;5044962;28;20183;-93
2023/11/09 01:33:51;;;;;;;24.03;22.17;;;8.90;94.50;;;;;;5048813;28;20184;-93
2023/11/09 01:36:16;;;;;;;21.93;20.37;;;8.90;94.50;;;;;;5045744;28;20200;-92
2023/11/09 01:38:43;;;;;;;21.00;19.70;;;8.90;94.50;;;;;;5044621;28;20271;-92
2023/11/09 01:41:09;;;;;;;24.90;23.30;;;8.90;94.50;;;;;;5044745;28;20254;-92
2023/11/09 01:43:35;;;;;;;26.33;24.43;;;8.90;94.60;;;;;;5043274;28;20695;-93
2023/11/09 01:46:04;;;;;;;25.93;24.13;;;8.90;94.60;;;;;;5043671;28;20250;-92
2023/11/09 01:48:34;;;;;;;26.10;24.60;;;8.90;94.70;;;;;;5043399;28;20168;-92
2023/11/09 01:51:01;;;;;;;25.33;23.60;;;8.90;94.70;;;;;;5042892;28;20180;-91
2023/11/09 01:53:28;;;;;;;24.83;23.23;;;8.90;94.70;;;;;;5043845;28;20172;-91
2023/11/09 01:55:56;;;;;;;26.30;24.60;;;8.90;94.80;;;;;;5044041;28;20257;-92
2023/11/09 01:58:23;;;;;;;23.30;21.90;;;8.90;94.80;;;;;;5026968;28;20184;-92
2023/11/09 02:00:53;;;;;;;23.20;21.80;;;8.90;94.80;;;;;;5044023;28;20203;-91
2023/11/09 02:03:19;;;;;;;24.07;22.37;;;8.90;94.80;;;;;;5043602;28;20199;-92
2023/11/09 02:05:46;;;;;;;24.00;22.60;;;8.90;94.80;;;;;;5042998;28;20215;-92
2023/11/09 02:08:13;;;;;;;42.17;39.57;;;8.90;94.90;;;;;;5043766;28;20647;-93
2023/11/09 02:10:39;;;;;;;41.50;38.90;;;8.90;94.90;;;;;;5043506;28;20203;-93
2023/11/09 02:13:04;;;;;;;43.40;40.70;;;9.00;95.00;;;;;;5043760;28;20230;-91
2023/11/09 02:15:31;;;;;;;41.77;39.23;;;8.90;95.00;;;;;;5043673;28;20195;-91
2023/11/09 02:17:56;;;;;;;42.97;40.43;;;8.90;95.10;;;;;;5043542;28;20184;-92
2023/11/09 02:20:23;;;;;;;43.20;40.70;;;8.90;95.10;;;;;;5043833;28;20205;-92
2023/11/09 02:22:53;;;;;;;43.33;40.67;;;9.00;95.20;;;;;;5045209;28;20174;-93
2023/11/09 02:25:20;;;;;;;42.47;39.97;;;8.90;95.20;;;;;;5042945;28;20196;-93
2023/11/09 02:27:45;;;;;;;42.77;40.20;;;8.90;95.20;;;;;;5043473;28;20574;-92
2023/11/09 02:30:13;;;;;;;44.47;41.77;;;9.00;95.30;;;;;;5043966;28;20187;-92
2023/11/09 02:32:40;;;;;;;43.80;41.20;;;9.00;95.30;;;;;;5043234;28;20724;-92
2023/11/09 02:35:07;;;;;;;47.53;44.73;;;9.00;95.40;;;;;;5043349;28;21593;-92
2023/11/09 02:37:34;;;;;;;42.57;39.97;;;9.00;95.40;;;;;;5044717;28;20176;-92
2023/11/09 02:40:00;;;;;;;44.50;41.80;;;9.00;95.40;;;;;;5042628;28;20650;-92
2023/11/09 02:42:26;;;;;;;51.37;48.27;;;9.00;95.30;;;;;;5042531;28;20191;-92
2023/11/09 02:44:52;;;;;;;25.83;24.17;;;9.00;95.30;;;;;;5043198;28;20211;-92
2023/11/09 02:47:19;;;;;;;27.33;25.47;;;9.00;95.30;;;;;;5043321;28;20227;-93
2023/11/09 02:49:45;;;;;;;45.03;41.93;;;9.00;95.30;;;;;;5042822;28;20228;-94
2023/11/09 02:52:11;;;;;;;45.43;42.47;;;9.00;95.30;;;;;;5043866;28;20262;-92
2023/11/09 02:54:37;;;;;;;47.23;44.53;;;9.00;95.30;;;;;;5043477;28;20187;-92
2023/11/09 02:57:04;;;;;;;25.27;23.77;;;9.00;95.30;;;;;;5042967;28;20195;-92
2023/11/09 02:59:29;;;;;;;26.87;25.27;;;9.10;95.30;;;;;;5044166;28;20203;-92
2023/11/09 03:01:56;;;;;;;47.10;44.30;;;9.10;95.30;;;;;;5045791;28;20176;-91
2023/11/09 03:04:22;;;;;;;45.50;42.80;;;9.10;95.30;;;;;;5045234;28;20176;-91
2023/11/09 03:06:48;;;;;;;48.07;45.27;;;9.10;95.20;;;;;;5028113;28;20196;-92
2023/11/09 03:09:17;;;;;;;24.53;23.10;;;9.10;95.20;;;;;;5044418;28;20183;-92
2023/11/09 03:11:43;;;;;;;28.40;26.67;;;9.10;95.20;;;;;;5042536;28;20191;-92
2023/11/09 03:14:09;;;;;;;26.53;24.97;;;9.20;95.20;;;;;;5043840;28;20172;-92
2023/11/09 03:16:38;;;;;;;28.73;26.83;;;9.20;95.20;;;;;;5043610;28;20191;-92
2023/11/09 03:19:10;;;;;;;30.27;28.47;;;9.20;95.10;;;;;;5044476;28;20175;-92
2023/11/09 03:21:36;;;;;;;26.67;25.13;;;9.20;95.10;;;;;;5046314;28;20192;-92
2023/11/09 03:24:01;;;;;;;29.03;27.10;;;9.20;95.00;;;;;;5044481;28;20210;-92
2023/11/09 03:26:29;;;;;;;28.90;26.90;;;9.20;95.00;;;;;;5062384;28;20212;-92
2023/11/09 03:28:58;;;;;;;29.30;27.23;;;9.20;95.00;;;;;;5044494;28;20199;-92
2023/11/09 03:31:24;;;;;;;29.10;27.37;;;9.20;95.00;;;;;;5045067;28;20176;-92
2023/11/09 03:33:50;;;;;;;28.80;27.10;;;9.20;95.00;;;;;;5044356;28;20168;-92
2023/11/09 03:36:19;;;;;;;28.83;26.93;;;9.20;95.10;;;;;;5047668;28;20274;-93
2023/11/09 03:38:48;;;;;;;30.53;28.83;;;9.20;95.10;;;;;;5046501;28;20259;-93
2023/11/09 03:41:14;;;;;;;30.30;28.50;;;9.20;95.10;;;;;;5047700;28;20271;-92
2023/11/09 03:43:43;;;;;;;30.53;28.70;;;9.20;95.20;;;;;;5047016;28;20194;-93
2023/11/09 03:46:13;;;;;;;30.17;28.37;;;9.20;95.20;;;;;;5033598;28;20259;-93
2023/11/09 03:48:41;;;;;;;30.33;28.60;;;9.20;95.20;;;;;;5048816;28;20199;-93
2023/11/09 03:51:10;;;;;;;30.17;28.10;;;9.20;95.20;;;;;;5067711;28;20331;-93
2023/11/09 03:53:38;;;;;;;30.53;28.33;;;9.20;95.20;;;;;;5069076;28;20678;-93
2023/11/09 03:56:05;;;;;;;30.67;28.87;;;9.20;95.20;;;;;;5051293;28;20200;-93
2023/11/09 03:58:31;;;;;;;29.20;27.50;;;9.20;95.10;;;;;;5051426;28;20164;-92
2023/11/09 04:01:00;;;;;;;30.87;29.07;;;9.20;95.10;;;;;;5052090;28;20567;-93
2023/11/09 04:03:26;;;;;;;31.57;29.70;;;9.20;95.10;;;;;;5032876;28;20184;-93
2023/11/09 04:05:52;;;;;;;51.17;48.17;;;9.20;95.10;;;;;;5047194;28;20196;-92
2023/11/09 04:08:19;;;;;;;53.03;49.70;;;9.30;95.10;;;;;;5029848;28;20180;-93
2023/11/09 04:10:46;;;;;;;52.20;49.20;;;9.20;95.10;;;;;;5047473;28;20176;-93
2023/11/09 04:13:12;;;;;;;55.67;52.37;;;9.20;95.10;;;;;;5048867;28;20180;-92
2023/11/09 04:15:40;;;;;;;53.13;50.03;;;9.30;95.10;;;;;;5049452;28;20195;-93
2023/11/09 04:18:06;;;;;;;53.47;50.27;;;9.20;95.10;;;;;;5048293;28;20176;-92
2023/11/09 04:20:31;;;;;;;55.10;51.90;;;9.30;95.10;;;;;;5046961;28;20204;-93
2023/11/09 04:22:58;;;;;;;56.10;52.57;;;9.30;95.10;;;;;;5046928;28;20180;-92
2023/11/09 04:25:24;;;;;;;55.70;52.43;;;9.30;95.00;;;;;;5046956;28;20202;-92
2023/11/09 04:27:50;;;;;;;58.60;55.20;;;9.30;95.00;;;;;;5047125;28;20172;-93
2023/11/09 04:30:19;;;;;;;58.40;55.00;;;9.30;95.00;;;;;;5047211;28;20191;-93
2023/11/09 04:32:45;;;;;;;57.60;54.30;;;9.30;95.00;;;;;;5049133;28;20176;-93
2023/11/09 04:35:10;;;;;;;55.27;52.03;;;9.30;95.00;;;;;;5048483;28;20268;-93
2023/11/09 04:37:38;;;;;;;59.90;56.27;;;9.30;94.90;;;;;;5049454;28;20239;-91
2023/11/09 04:40:15;;;;;;;37.00;34.80;;;9.30;94.90;;;;;;5048540;28;20568;-90
2023/11/09 04:42:46;;;;;;;35.83;33.63;;;9.30;95.00;;;;;;5050045;28;20249;-92
2023/11/09 04:45:13;;;;;;;35.93;33.63;;;9.30;95.00;;;;;;5048105;28;20188;-93
2023/11/09 04:47:43;;;;;;;57.20;53.53;;;9.30;94.90;;;;;;5048082;28;20175;-93
2023/11/09 04:50:27;;;;;;;59.33;55.73;;;9.30;94.90;;;;;;5048484;28;20175;-93
2023/11/09 04:53:19;;;;;;;36.10;33.70;;;9.30;95.00;;;;;;5049626;28;20172;-92
2023/11/09 04:55:57;;;;;;;38.70;36.37;;;9.30;94.90;;;;;;5048023;28;20290;-92
2023/11/09 05:06:52;;;;;;;36.00;33.67;;;9.30;95.10;;;;;;5067851;28;20191;-92
2023/11/09 05:09:19;;;;;;;34.73;32.63;;;9.40;95.00;;;;;;5048812;28;20172;-93
2023/11/09 05:11:46;;;;;;;36.53;34.30;;;9.30;95.00;;;;;;5048380;28;20172;-93
2023/11/09 05:14:13;;;;;;;37.73;34.83;;;9.30;95.00;;;;;;5048184;28;20172;-93
2023/11/09 05:16:39;;;;;;;36.67;34.37;;;9.40;95.00;;;;;;5046631;28;20196;-93
2023/11/09 05:19:05;;;;;;;38.33;35.93;;;9.30;95.00;;;;;;5046723;28;20176;-92
2023/11/09 05:21:30;;;;;;;38.30;35.90;;;9.30;94.90;;;;;;5051157;28;20222;-92
2023/11/09 05:23:56;;;;;;;36.87;34.50;;;9.40;94.90;;;;;;5051794;28;20180;-92
2023/11/09 05:26:25;;;;;;;38.93;36.40;;;9.30;94.90;;;;;;5053099;28;20196;-93
2023/11/09 05:28:52;;;;;;;36.67;34.47;;;9.40;94.90;;;;;;5051886;28;20176;-92
2023/11/09 05:31:17;;;;;;;36.67;34.07;;;9.40;94.90;;;;;;5052182;28;20203;-92
2023/11/09 05:33:44;;;;;;;38.87;36.37;;;9.40;95.00;;;;;;5051646;28;20184;-91
2023/11/09 05:36:10;;;;;;;36.77;34.57;;;9.30;95.00;;;;;;5051881;28;20211;-92
2023/11/09 05:38:37;;;;;;;40.97;38.47;;;9.30;95.10;;;;;;5050132;28;20175;-92
2023/11/09 05:41:06;;;;;;;39.97;37.47;;;9.30;95.10;;;;;;5050727;28;20206;-93
2023/11/09 05:43:32;;;;;;;41.93;39.13;;;9.40;95.10;;;;;;5049989;28;20327;-92
2023/11/09 05:45:58;;;;;;;40.93;38.40;;;9.30;95.10;;;;;;5051424;28;20200;-92
2023/11/09 05:48:25;;;;;;;43.70;40.90;;;9.30;95.20;;;;;;5050635;28;20178;-92
2023/11/09 05:50:51;;;;;;;41.13;38.50;;;9.40;95.30;;;;;;5051953;28;20244;-93
2023/11/09 05:53:17;;;;;;;43.07;40.27;;;9.30;95.30;;;;;;5051241;28;20180;-92
2023/11/09 05:55:45;;;;;;;43.87;41.17;;;9.30;95.40;;;;;;5049751;28;20196;-92
2023/11/09 05:58:12;;;;;;;42.73;40.13;;;9.30;95.40;;;;;;5051632;28;20180;-92
2023/11/09 06:00:39;;;;;;;41.93;39.50;;;9.30;95.40;;;;;;5051169;28;20267;-93
2023/11/09 06:03:06;;;;;;;60.57;56.97;;;9.30;95.50;;;;;;5050995;28;20270;-92
2023/11/09 06:05:31;;;;;;;62.73;58.80;;;9.30;95.50;;;;;;5049580;28;20206;-92
2023/11/09 06:07:57;;;;;;;64.00;60.10;;;9.30;95.50;;;;;;5051345;28;20642;-92
2023/11/09 06:10:25;;;;;;;62.90;59.00;;;9.30;95.50;;;;;;5051227;28;20289;-93
2023/11/09 06:12:50;;;;;;;64.53;60.57;;;9.30;95.50;;;;;;5051186;28;20271;-93
2023/11/09 06:15:16;;;;;;;62.93;59.23;;;9.30;95.50;;;;;;5052122;28;20208;-93
2023/11/09 06:17:45;;;;;;;64.43;60.53;;;9.30;95.50;;;;;;5051404;28;20203;-93
2023/11/09 06:20:21;;;;;;;65.20;61.23;;;9.30;95.60;;;;;;5050829;28;20751;-92
2023/11/09 06:22:48;;;;;;;65.37;61.47;;;9.30;95.60;;;;;;5051997;28;20378;-92
2023/11/09 06:25:14;;;;;;;67.60;63.50;;;9.30;95.70;;;;;;5051577;28;20192;-93
2023/11/09 06:28:00;;;;;;;66.77;62.53;;;9.20;95.70;;;;;;5068639;28;20170;-92
2023/11/09 06:30:27;;;;;;;66.07;62.03;;;9.30;95.70;;;;;;5054225;28;20183;-92
2023/11/09 06:32:54;;;;;;;62.27;58.57;;;9.30;95.80;;;;;;5052043;28;20180;-93
2023/11/09 06:35:20;;;;;;;68.20;64.00;;;9.30;95.80;;;;;;5051234;28;20235;-92
2023/11/09 06:37:46;;;;;;;45.13;42.33;;;9.20;95.80;;;;;;5051180;28;20176;-92
2023/11/09 06:40:16;;;;;;;43.67;40.87;;;9.30;95.90;;;;;;5050104;28;20206;-92
2023/11/09 06:42:45;;;;;;;44.40;41.70;;;9.30;95.80;;;;;;5051658;28;20195;-93
2023/11/09 06:45:11;;;;;;;65.67;61.77;;;9.20;95.90;;;;;;5051899;28;20224;-92
2023/11/09 06:47:40;;;;;;;64.40;60.60;;;9.20;95.90;;;;;;5051887;28;20175;-93
2023/11/09 06:50:12;;;;;;;44.87;42.27;;;9.30;95.90;;;;;;5049944;28;20230;-92
2023/11/09 06:52:41;;;;;;;44.20;41.47;;;9.30;96.00;;;;;;5050405;28;20183;-92
2023/11/09 06:55:10;;;;;;;44.60;42.00;;;9.20;96.00;;;;;;5051202;28;20644;-92
2023/11/09 06:57:37;;;;;;;65.90;61.85;;;9.30;96.00;;;;;;5052488;28;20211;-92
2023/11/09 07:00:07;;;;;;;66.80;62.80;;;9.20;96.00;;;;;;5051144;28;20212;-93
2023/11/09 07:02:33;;;;;;;43.60;41.10;;;9.20;96.00;;;;;;5051059;28;20168;-93
2023/11/09 07:04:59;;;;;;;43.70;41.20;;;9.30;96.00;;;;;;5050122;28;20243;-92
2023/11/09 07:07:26;;;;;;;39.17;36.77;;;9.20;96.00;;;;;;5050809;28;20219;-92
2023/11/09 07:09:52;;;;;;;59.20;55.50;;;9.30;96.10;;;;;;5052163;28;20186;-92
2023/11/09 07:12:19;;;;;;;60.83;57.20;;;9.20;96.10;;;;;;5050951;28;20180;-93
2023/11/09 07:14:45;;;;;;;43.40;40.83;;;9.20;96.10;;;;;;5049761;28;20651;-94
2023/11/09 07:17:14;;;;;;;43.97;41.47;;;9.30;96.10;;;;;;5046633;28;20267;-91
2023/11/09 07:19:43;;;;;;;52.77;49.63;;;9.20;96.10;;;;;;5046438;28;20200;-93
2023/11/09 07:22:10;;;;;;;59.23;55.73;;;9.20;96.10;;;;;;5040977;28;20249;-93
2023/11/09 07:24:37;;;;;;;62.77;59.10;;;9.20;96.10;;;;;;5052681;28;20168;-92
2023/11/09 07:27:06;;;;;;;45.17;42.37;;;9.20;96.10;;;;;;5046933;28;20192;-93
2023/11/09 07:29:33;;;;;;;45.80;43.10;;;9.30;96.10;;;;;;5051985;28;20184;-93
2023/11/09 07:32:03;;;;;;;70.37;66.27;;;9.30;96.10;;;;;;5055320;28;20674;-93
2023/11/09 07:34:30;;;;;;;65.60;61.60;;;9.30;96.10;;;;;;5055523;28;20176;-91
2023/11/09 07:36:57;;;;;;;64.87;61.13;;;9.30;96.10;;;;;;5053182;28;20202;-92
2023/11/09 07:39:27;;;;;;;43.00;40.50;;;9.30;96.10;;;;;;5049562;28;20240;-93
2023/11/09 07:42:02;;;;;;;40.67;38.33;;;9.30;96.10;;;;;;5050822;28;20199;-92
2023/11/09 07:44:28;;;;;;;43.07;40.47;;;9.30;96.10;;;;;;5048252;28;20214;-92
2023/11/09 07:46:54;;;;;;;43.73;41.23;;;9.30;96.10;;;;;;5050307;28;20200;-93
2023/11/09 07:49:21;;;;;;;42.50;40.00;;;9.30;96.10;;;;;;5049800;28;20176;-92
2023/11/09 07:51:46;;;;;;;46.63;43.93;;;9.30;96.20;;;;;;5050864;28;20259;-93
2023/11/09 07:54:13;;;;;;;44.53;42.00;;;9.30;96.10;;;;;;5048793;28;20176;-92
2023/11/09 07:56:39;;;;;;;70.10;66.00;;;9.30;96.10;;;;;;5047599;28;20203;-93
2023/11/09 07:59:05;;;;;;;71.07;66.97;;;9.30;96.10;;;;;;5047057;28;20192;-93
2023/11/09 08:01:30;;;;;;;72.23;67.73;;;9.30;96.20;;;;;;5046123;28;20226;-93
2023/11/09 08:03:57;;;;;;;44.37;41.83;;;9.30;96.20;;;;;;5047221;28;20179;-93
2023/11/09 08:06:22;;;;;;;40.67;38.37;;;9.40;96.20;;;;;;5047715;28;20581;-93
2023/11/09 08:08:52;;;;;;;67.97;63.97;;;9.30;96.20;;;;;;5048602;28;20179;-93
2023/11/09 08:11:18;;;;;;;66.10;62.27;;;9.40;96.20;;;;;;5049301;28;20202;-93
2023/11/09 08:13:44;;;;;;;69.93;65.83;;;9.40;96.20;;;;;;5049019;28;20178;-91
2023/11/09 08:16:09;;;;;;;46.60;43.90;;;9.40;96.20;;;;;;5048864;28;20219;-91
2023/11/09 08:18:35;;;;;;;48.33;45.50;;;9.40;96.20;;;;;;5049823;28;20532;-92
2023/11/09 08:21:03;;;;;;;64.37;60.67;;;9.50;96.20;;;;;;5049389;28;20207;-93
2023/11/09 08:23:31;;;;;;;66.73;62.90;;;9.50;96.20;;;;;;5048967;28;20172;-93
2023/11/09 08:25:57;;;;;;;68.50;63.67;;;9.50;96.20;;;;;;5048739;28;20200;-92
2023/11/09 08:28:24;;;;;;;45.67;42.87;;;9.50;96.20;;;;;;5047112;28;20200;-93
2023/11/09 08:30:51;;;;;;;45.67;43.00;;;9.50;96.30;;;;;;5046571;28;20199;-93
2023/11/09 08:33:21;;;;;;;68.40;64.40;;;9.50;96.30;;;;;;5044269;28;20186;-93
2023/11/09 08:35:49;;;;;;;69.77;65.70;;;9.50;96.30;;;;;;5043049;28;20196;-92
2023/11/09 08:38:15;;;;;;;48.37;45.57;;;9.50;96.30;;;;;;5043415;28;20230;-92
2023/11/09 08:40:42;;;;;;;48.30;45.50;;;9.50;96.40;;;;;;5046433;28;20211;-93
2023/11/09 08:43:10;;;;;;;47.37;44.57;;;9.50;96.40;;;;;;5051288;28;20192;-92
2023/11/09 08:45:36;;;;;;;68.80;64.80;;;9.50;96.40;;;;;;5045539;28;20196;-89
2023/11/09 08:48:02;;;;;;;73.10;68.50;;;9.50;96.40;;;;;;5047447;28;20306;-93
2023/11/09 08:50:28;;;;;;;69.20;65.10;;;9.50;96.40;;;;;;5047867;28;20183;-92
2023/11/09 08:52:54;;;;;;;66.37;62.30;;;9.50;96.40;;;;;;5048456;28;20640;-90
2023/11/09 08:55:20;;;;;;;67.93;63.63;;;9.50;96.40;;;;;;5048676;28;20250;-92
2023/11/09 08:57:47;;;;;;;71.40;66.80;;;9.50;96.40;;;;;;5052095;28;20184;-93
2023/11/09 09:00:14;;;;;;;53.10;50.00;;;9.50;96.40;;;;;;5053366;28;20208;-93
2023/11/09 09:02:45;;;;;;;51.10;48.07;;;9.50;96.40;;;;;;5049920;28;20187;-92
2023/11/09 09:05:20;;;;;;;52.43;49.13;;;9.60;96.30;;;;;;5053718;28;20195;-92
2023/11/09 09:07:49;;;;;;;53.00;49.90;;;9.60;96.30;;;;;;5052995;28;20187;-92
2023/11/09 09:10:16;;;;;;;50.93;47.93;;;9.60;96.30;;;;;;5050297;28;20180;-92
2023/11/09 09:12:46;;;;;;;54.37;50.97;;;9.70;96.30;;;;;;5051209;28;20180;-92
2023/11/09 09:15:17;;;;;;;55.60;52.30;;;9.60;96.30;;;;;;5048936;28;20208;-91
2023/11/09 09:17:47;;;;;;;54.47;51.27;;;9.60;96.30;;;;;;5053170;28;20183;-92
2023/11/09 09:20:18;;;;;;;55.80;52.40;;;9.70;96.30;;;;;;5056375;28;20196;-92
2023/11/09 09:22:45;;;;;;;58.23;54.77;;;9.70;96.20;;;;;;5057345;28;20183;-92
2023/11/09 09:25:11;;;;;;;55.30;51.80;;;9.70;96.20;;;;;;5054057;28;20196;-93
2023/11/09 09:27:41;;;;;;;55.97;52.57;;;9.80;96.20;;;;;;5050646;28;20187;-92
2023/11/09 09:30:10;;;;;;;57.90;54.40;;;9.70;96.10;;;;;;5048854;28;20188;-93
2023/11/09 09:32:46;;;;;;;60.47;56.77;;;9.80;96.10;;;;;;5052816;28;20183;-93
2023/11/09 09:35:12;;;;;;;58.67;55.10;;;9.80;96.10;;;;;;5052774;28;20200;-92
2023/11/09 09:37:39;;;;;;;58.73;55.23;;;9.80;96.10;;;;;;5051140;28;20186;-92
2023/11/09 09:40:15;;;;;;;59.17;55.47;;;9.80;96.10;;;;;;5051577;28;20267;-92
2023/11/09 09:42:46;;;;;;;60.23;56.63;;;9.80;96.00;;;;;;5051436;28;20199;-92
2023/11/09 09:45:21;;;;;;;60.90;57.27;;;9.90;95.90;;;;;;5050950;28;20204;-92
2023/11/09 09:47:50;;;;;;;61.27;57.57;;;9.90;95.90;;;;;;5050533;28;20777;-91
2023/11/09 09:50:29;;;;;;;65.03;60.83;;;9.80;95.80;;;;;;5043027;28;20188;-91
2023/11/09 09:52:57;;;;;;;65.87;61.77;;;9.90;95.80;;;;;;5037260;28;20187;-93
2023/11/09 09:55:24;;;;;;;62.30;58.53;;;9.90;95.80;;;;;;5050256;28;20577;-92
2023/11/09 09:57:53;;;;;;;63.33;59.43;;;9.90;95.80;;;;;;5050800;28;20234;-92
2023/11/09 10:00:24;;;;;;;64.03;59.90;;;10.00;95.80;;;;;;5049062;28;20584;-92
2023/11/09 10:02:55;;;;;;;64.93;60.80;;;10.00;95.80;;;;;;5052914;28;20172;-92
2023/11/09 10:05:24;;;;;;;69.37;64.73;;;10.00;95.80;;;;;;5052631;28;20222;-93
2023/11/09 10:08:13;;;;;;;83.60;78.60;;;10.00;95.80;;;;;;5051434;28;20180;-92
2023/11/09 10:10:49;;;;;;;83.67;78.47;;;10.10;95.80;;;;;;5051877;28;20168;-93
2023/11/09 10:13:18;;;;;;;84.03;79.03;;;10.10;95.70;;;;;;5052133;28;20172;-91
2023/11/09 10:15:45;;;;;;;83.00;77.90;;;10.10;95.70;;;;;;5040789;28;20265;-92
2023/11/09 10:18:12;;;;;;;85.00;79.90;;;10.10;95.70;;;;;;5041194;28;20536;-92
2023/11/09 10:20:59;;;;;;;86.30;80.90;;;10.10;95.60;;;;;;5041314;28;20211;-92
2023/11/09 10:23:28;;;;;;;85.73;80.43;;;10.10;95.60;;;;;;5041349;28;20172;-92
2023/11/09 10:25:56;;;;;;;82.00;77.00;;;10.10;95.60;;;;;;5040602;28;20278;-92
2023/11/09 10:28:24;;;;;;;89.50;84.17;;;10.10;95.60;;;;;;5045852;28;20187;-92
2023/11/09 10:30:50;;;;;;;87.20;81.70;;;10.10;95.60;;;;;;5039020;28;20191;-92
2023/11/09 10:33:17;;;;;;;89.50;84.13;;;10.10;95.50;;;;;;5037540;28;20180;-89
2023/11/09 10:35:45;;;;;;;87.97;82.37;;;10.10;95.50;;;;;;5044062;28;20183;-93
2023/11/09 10:38:12;;;;;;;67.70;63.40;;;10.10;95.50;;;;;;5050440;28;20172;-91
2023/11/09 10:40:42;;;;;;;66.50;62.40;;;10.10;95.60;;;;;;5061153;28;20207;-92
2023/11/09 10:43:09;;;;;;;69.67;65.30;;;10.10;95.70;;;;;;5061397;28;20214;-91
2023/11/09 10:45:38;;;;;;;85.33;80.23;;;10.10;95.80;;;;;;5056024;28;20206;-91
2023/11/09 10:48:07;;;;;;;89.33;84.13;;;10.10;95.90;;;;;;5062014;28;20631;-90
2023/11/09 10:50:44;;;;;;;60.77;56.97;;;10.00;95.90;;;;;;5060268;28;20184;-91
2023/11/09 10:53:12;;;;;;;68.93;64.33;;;10.00;96.00;;;;;;5059647;28;20174;-91
2023/11/09 10:55:43;;;;;;;89.77;84.37;;;10.00;96.00;;;;;;5051757;28;20208;-90
2023/11/09 10:58:09;;;;;;;86.57;81.03;;;10.00;96.00;;;;;;5058807;28;20148;-90
2023/11/09 11:00:42;;;;;;;90.77;85.17;;;10.00;96.10;;;;;;5056237;28;20234;-91
2023/11/09 11:03:33;;;;;;;66.13;61.93;;;10.00;96.10;;;;;;5054974;28;20179;-93
2023/11/09 11:06:02;;;;;;;67.57;63.27;;;10.00;96.10;;;;;;5056409;28;20172;-92
2023/11/09 11:08:38;;;;;;;70.50;65.93;;;10.10;96.10;;;;;;5059369;28;20207;-93
2023/11/09 11:11:04;;;;;;;68.43;63.67;;;10.20;96.10;;;;;;5059101;28;20176;-92
2023/11/09 11:13:33;;;;;;;70.80;66.20;;;10.20;95.90;;;;;;5052677;28;20184;-93
2023/11/09 11:16:05;;;;;;;70.40;66.00;;;10.20;95.90;;;;;;5059478;28;20204;-93
2023/11/09 11:18:49;;;;;;;90.13;84.53;;;10.30;95.80;;;;;;5075020;28;20173;-92
2023/11/09 11:21:27;;;;;;;97.07;91.03;;;10.30;95.80;;;;;;5060801;28;20241;-92
2023/11/09 11:24:12;;;;;;;95.57;89.70;;;10.30;95.60;;;;;;5062357;28;20156;-92
2023/11/09 11:26:53;;;;;;;71.97;67.40;;;10.40;95.50;;;;;;5077712;28;20222;-92
2023/11/09 11:29:18;;;;;;;71.83;67.43;;;10.50;95.50;;;;;;5058200;28;20199;-92
2023/11/09 11:31:46;;;;;;;95.17;89.30;;;10.50;95.20;;;;;;5058818;28;20164;-92
2023/11/09 11:34:16;;;;;;;96.53;90.63;;;10.60;95.30;;;;;;5059440;28;20174;-93
2023/11/09 11:36:47;;;;;;;87.97;82.57;;;10.70;95.10;;;;;;5060418;28;20207;-93
2023/11/09 11:39:40;;;;;;;70.63;66.23;;;10.70;95.00;;;;;;5062112;28;20156;-93
2023/11/09 11:42:20;;;;;;;72.40;67.73;;;10.70;94.80;;;;;;5059017;28;20224;-93
2023/11/09 11:44:51;;;;;;;90.43;85.10;;;10.70;94.60;;;;;;5060095;28;20176;-91
2023/11/09 11:47:17;;;;;;;95.07;89.47;;;10.70;94.50;;;;;;5060992;28;20191;-92
2023/11/09 11:49:56;;;;;;;69.93;65.63;;;10.80;94.50;;;;;;5061605;28;20176;-93
2023/11/09 11:52:23;;;;;;;70.13;65.93;;;10.80;94.60;;;;;;5059599;28;20180;-93
2023/11/09 11:54:50;;;;;;;90.13;84.80;;;10.70;94.50;;;;;;5061195;28;20202;-93
2023/11/09 11:57:18;;;;;;;92.37;86.77;;;10.70;94.50;;;;;;5058789;28;20163;-91
2023/11/09 11:59:45;;;;;;;92.80;87.00;;;10.70;94.60;;;;;;5057698;28;20179;-91
2023/11/09 12:02:14;;;;;;;75.10;70.60;;;10.70;94.70;;;;;;5060702;28;20158;-93
2023/11/09 12:04:47;;;;;;;72.27;67.90;;;10.70;94.70;;;;;;5061300;28;20169;-93
2023/11/09 12:07:18;;;;;;;95.93;90.23;;;10.70;94.90;;;;;;5061576;28;20170;-94
2023/11/09 12:09:46;;;;;;;99.87;93.77;;;10.70;94.90;;;;;;5061586;28;20153;-91
2023/11/09 12:12:14;;;;;;;76.77;71.30;;;10.60;94.80;;;;;;5061722;28;20195;-94
2023/11/09 12:14:41;;;;;;;72.70;67.90;;;10.60;94.80;;;;;;5061573;28;20180;-93
2023/11/09 12:17:06;;;;;;;68.80;64.50;;;10.60;94.80;;;;;;5061487;28;20195;-94
2023/11/09 12:19:33;;;;;;;75.77;70.93;;;10.60;94.80;;;;;;5061517;28;20227;-93
2023/11/09 12:22:01;;;;;;;71.17;66.60;;;10.60;94.80;;;;;;5061450;28;20164;-94
2023/11/09 12:24:28;;;;;;;73.27;68.27;;;10.60;94.40;;;;;;5061440;28;20168;-94
2023/11/09 12:27:10;;;;;;;70.27;65.53;;;10.50;94.20;;;;;;5061314;28;20191;-93
2023/11/09 12:29:38;;;;;;;68.50;63.93;;;10.40;93.80;;;;;;5062517;28;20148;-95
2023/11/09 12:32:06;;;;;;;65.80;60.80;;;10.40;93.60;;;;;;5065526;28;20176;-93
2023/11/09 12:34:35;;;;;;;71.20;66.50;;;10.50;93.80;;;;;;5065459;28;20182;-93
2023/11/09 12:37:01;;;;;;;70.40;65.77;;;10.70;93.90;;;;;;5065333;28;20200;-94
2023/11/09 12:39:30;;;;;;;71.63;66.50;;;10.70;93.70;;;;;;5065376;28;20167;-94
2023/11/09 12:42:00;;;;;;;71.57;66.87;;;10.70;93.70;;;;;;5065069;28;20179;-93
2023/11/09 12:44:29;;;;;;;72.03;66.67;;;10.70;93.60;;;;;;5065333;28;20179;-94
2023/11/09 12:46:56;;;;;;;73.30;68.13;;;10.80;93.60;;;;;;5064675;28;20172;-93
2023/11/09 12:49:27;;;;;;;74.17;69.37;;;10.70;93.30;;;;;;5064979;28;20175;-92